sensor_id;sensor_type;location;lat;lon;timestamp;pressure;altitude;pressure_sealevel;temperature;humidity
54808;BME280;40708;50.364;7.550;2022-08-19T00:01:22;100109.44;;;19.45;100.00
54808;BME280;40708;50.364;7.550;2022-08-19T00:03:48;100125.63;;;19.44;100.00
54808;BME280;40708;50.364;7.550;2022-08-19T00:06:14;100124.69;;;19.45;100.00
54808;BME280;40708;50.364;7.550;2022-08-19T00:08:40;100124.75;;;19.43;100.00
54808;BME280;40708;50.364;7.550;2022-08-19T00:11:05;100130.13;;;19.43;100.00
54808;BME280;40708;50.364;7.550;2022-08-19T00:13:31;100132.88;;;19.42;100.00
54808;BME280;40708;50.364;7.550;2022-08-19T00:15:56;100134.66;;;19.43;100.00
54808;BME280;40708;50.364;7.550;2022-08-19T00:18:24;100123.81;;;19.44;100.00
54808;BME280;40708;50.364;7.550;2022-08-19T00:20:49;100132.81;;;19.43;100.00
54808;BME280;40708;50.364;7.550;2022-08-19T00:23:14;100129.28;;;19.43;100.00
54808;BME280;40708;50.364;7.550;2022-08-19T00:25:40;100130.13;;;19.43;100.00
54808;BME280;40708;50.364;7.550;2022-08-19T00:28:05;100126.44;;;19.46;100.00
54808;BME280;40708;50.364;7.550;2022-08-19T00:30:31;100121.06;;;19.46;100.00
54808;BME280;40708;50.364;7.550;2022-08-19T00:32:57;100124.56;;;19.48;100.00
54808;BME280;40708;50.364;7.550;2022-08-19T00:35:22;100130.66;;;19.53;100.00
54808;BME280;40708;50.364;7.550;2022-08-19T00:37:49;100124.19;;;19.57;100.00
54808;BME280;40708;50.364;7.550;2022-08-19T00:40:15;100117.06;;;19.56;100.00
54808;BME280;40708;50.364;7.550;2022-08-19T00:42:41;100112.63;;;19.55;100.00
54808;BME280;40708;50.364;7.550;2022-08-19T00:45:14;100111.69;;;19.56;100.00
54808;BME280;40708;50.364;7.550;2022-08-19T00:47:40;100110.81;;;19.55;100.00
54808;BME280;40708;50.364;7.550;2022-08-19T00:50:06;100102.72;;;19.55;100.00
54808;BME280;40708;50.364;7.550;2022-08-19T00:52:35;100109.13;;;19.53;100.00
54808;BME280;40708;50.364;7.550;2022-08-19T00:55:04;100111.03;;;19.49;100.00
54808;BME280;40708;50.364;7.550;2022-08-19T00:57:35;100115.53;;;19.49;100.00
54808;BME280;40708;50.364;7.550;2022-08-19T01:00:06;100106.63;;;19.48;100.00
54808;BME280;40708;50.364;7.550;2022-08-19T01:02:32;100120.13;;;19.47;100.00
54808;BME280;40708;50.364;7.550;2022-08-19T01:04:59;100112.97;;;19.46;100.00
54808;BME280;40708;50.364;7.550;2022-08-19T01:07:25;100108.69;;;19.42;100.00
54808;BME280;40708;50.364;7.550;2022-08-19T01:09:51;100106.09;;;19.39;100.00
54808;BME280;40708;50.364;7.550;2022-08-19T01:12:16;100110.59;;;19.38;100.00
54808;BME280;40708;50.364;7.550;2022-08-19T01:14:43;100107.09;;;19.36;100.00
54808;BME280;40708;50.364;7.550;2022-08-19T01:17:10;100104.59;;;19.32;100.00
54808;BME280;40708;50.364;7.550;2022-08-19T01:19:40;100099.31;;;19.29;100.00
54808;BME280;40708;50.364;7.550;2022-08-19T01:22:25;100101.22;;;19.27;100.00
54808;BME280;40708;50.364;7.550;2022-08-19T01:24:52;100107.50;;;19.26;100.00
54808;BME280;40708;50.364;7.550;2022-08-19T01:27:17;100099.56;;;19.23;100.00
54808;BME280;40708;50.364;7.550;2022-08-19T01:29:44;100099.75;;;19.18;100.00
54808;BME280;40708;50.364;7.550;2022-08-19T01:32:13;100102.69;;;19.12;100.00
54808;BME280;40708;50.364;7.550;2022-08-19T01:34:39;100101.94;;;19.09;100.00
54808;BME280;40708;50.364;7.550;2022-08-19T01:37:10;100099.19;;;19.10;100.00
54808;BME280;40708;50.364;7.550;2022-08-19T01:39:38;100096.31;;;19.15;100.00
54808;BME280;40708;50.364;7.550;2022-08-19T01:42:04;100100.63;;;19.19;100.00
54808;BME280;40708;50.364;7.550;2022-08-19T01:44:31;100091.56;;;19.21;100.00
54808;BME280;40708;50.364;7.550;2022-08-19T01:46:56;100098.69;;;19.22;100.00
54808;BME280;40708;50.364;7.550;2022-08-19T01:49:23;100095.94;;;19.24;100.00
54808;BME280;40708;50.364;7.550;2022-08-19T01:51:50;100097.06;;;19.18;100.00
54808;BME280;40708;50.364;7.550;2022-08-19T01:54:17;100099.13;;;19.12;100.00
54808;BME280;40708;50.364;7.550;2022-08-19T01:56:42;100097.50;;;19.08;100.00
54808;BME280;40708;50.364;7.550;2022-08-19T01:59:10;100095.84;;;19.03;100.00
54808;BME280;40708;50.364;7.550;2022-08-19T02:01:37;100091.47;;;19.01;100.00
54808;BME280;40708;50.364;7.550;2022-08-19T02:04:02;100086.19;;;18.99;100.00
54808;BME280;40708;50.364;7.550;2022-08-19T02:06:28;100081.91;;;18.94;100.00
54808;BME280;40708;50.364;7.550;2022-08-19T02:08:54;100087.56;;;18.86;100.00
54808;BME280;40708;50.364;7.550;2022-08-19T02:11:32;100086.88;;;18.81;100.00
54808;BME280;40708;50.364;7.550;2022-08-19T02:14:00;100089.69;;;18.78;100.00
54808;BME280;40708;50.364;7.550;2022-08-19T02:16:27;100081.03;;;18.70;100.00
54808;BME280;40708;50.364;7.550;2022-08-19T02:18:52;100090.22;;;18.65;100.00
54808;BME280;40708;50.364;7.550;2022-08-19T02:21:20;100099.22;;;18.64;100.00
54808;BME280;40708;50.364;7.550;2022-08-19T02:23:46;100101.59;;;18.71;100.00
54808;BME280;40708;50.364;7.550;2022-08-19T02:26:12;100107.78;;;18.73;100.00
54808;BME280;40708;50.364;7.550;2022-08-19T02:28:39;100103.38;;;18.72;100.00
54808;BME280;40708;50.364;7.550;2022-08-19T02:31:10;100110.66;;;18.69;100.00
54808;BME280;40708;50.364;7.550;2022-08-19T02:33:35;100099.22;;;18.64;100.00
54808;BME280;40708;50.364;7.550;2022-08-19T02:36:03;100103.00;;;18.58;100.00
54808;BME280;40708;50.364;7.550;2022-08-19T02:38:29;100103.13;;;18.55;100.00
54808;BME280;40708;50.364;7.550;2022-08-19T02:40:58;100103.22;;;18.52;100.00
54808;BME280;40708;50.364;7.550;2022-08-19T02:43:24;100117.72;;;18.47;100.00
54808;BME280;40708;50.364;7.550;2022-08-19T02:45:51;100126.84;;;18.42;100.00
54808;BME280;40708;50.364;7.550;2022-08-19T02:48:21;100126.00;;;18.40;100.00
54808;BME280;40708;50.364;7.550;2022-08-19T02:50:47;100133.19;;;18.40;100.00
54808;BME280;40708;50.364;7.550;2022-08-19T02:53:19;100130.63;;;18.37;100.00
54808;BME280;40708;50.364;7.550;2022-08-19T02:55:47;100124.53;;;18.32;100.00
54808;BME280;40708;50.364;7.550;2022-08-19T02:58:14;100125.53;;;18.29;100.00
54808;BME280;40708;50.364;7.550;2022-08-19T03:00:45;100126.50;;;18.27;100.00
54808;BME280;40708;50.364;7.550;2022-08-19T03:03:11;100122.22;;;18.21;100.00
54808;BME280;40708;50.364;7.550;2022-08-19T03:05:38;100125.91;;;18.19;100.00
54808;BME280;40708;50.364;7.550;2022-08-19T03:08:03;100124.28;;;18.15;100.00
54808;BME280;40708;50.364;7.550;2022-08-19T03:10:29;100122.59;;;18.12;100.00
54808;BME280;40708;50.364;7.550;2022-08-19T03:12:54;100131.66;;;18.08;100.00
54808;BME280;40708;50.364;7.550;2022-08-19T03:15:20;100138.09;;;18.04;100.00
54808;BME280;40708;50.364;7.550;2022-08-19T03:17:45;100148.84;;;18.03;100.00
54808;BME280;40708;50.364;7.550;2022-08-19T03:20:10;100146.28;;;18.00;100.00
54808;BME280;40708;50.364;7.550;2022-08-19T03:22:36;100150.00;;;17.96;100.00
54808;BME280;40708;50.364;7.550;2022-08-19T03:25:01;100145.72;;;17.90;100.00
54808;BME280;40708;50.364;7.550;2022-08-19T03:27:27;100149.53;;;17.83;100.00
54808;BME280;40708;50.364;7.550;2022-08-19T03:29:52;100140.75;;;17.78;100.00
54808;BME280;40708;50.364;7.550;2022-08-19T03:32:17;100148.72;;;17.81;100.00
54808;BME280;40708;50.364;7.550;2022-08-19T03:34:43;100152.38;;;17.78;100.00
54808;BME280;40708;50.364;7.550;2022-08-19T03:37:10;100156.84;;;17.78;100.00
54808;BME280;40708;50.364;7.550;2022-08-19T03:39:40;100153.41;;;17.74;100.00
54808;BME280;40708;50.364;7.550;2022-08-19T03:42:06;100146.47;;;17.69;100.00
54808;BME280;40708;50.364;7.550;2022-08-19T03:44:32;100146.56;;;17.66;100.00
54808;BME280;40708;50.364;7.550;2022-08-19T03:46:59;100149.34;;;17.63;100.00
54808;BME280;40708;50.364;7.550;2022-08-19T03:49:28;100157.47;;;17.60;100.00
54808;BME280;40708;50.364;7.550;2022-08-19T03:51:55;100153.00;;;17.60;100.00
54808;BME280;40708;50.364;7.550;2022-08-19T03:54:23;100154.81;;;17.58;100.00
54808;BME280;40708;50.364;7.550;2022-08-19T03:56:50;100153.91;;;17.59;100.00
54808;BME280;40708;50.364;7.550;2022-08-19T03:59:19;100152.00;;;17.63;100.00
54808;BME280;40708;50.364;7.550;2022-08-19T04:01:45;100157.19;;;17.69;100.00
54808;BME280;40708;50.364;7.550;2022-08-19T04:04:11;100160.72;;;17.69;100.00
54808;BME280;40708;50.364;7.550;2022-08-19T04:06:38;100160.78;;;17.68;100.00
54808;BME280;40708;50.364;7.550;2022-08-19T04:09:06;100169.75;;;17.67;100.00
54808;BME280;40708;50.364;7.550;2022-08-19T04:11:44;100170.72;;;17.64;100.00
54808;BME280;40708;50.364;7.550;2022-08-19T04:14:13;100164.72;;;17.58;100.00
54808;BME280;40708;50.364;7.550;2022-08-19T04:16:39;100171.91;;;17.56;100.00
54808;BME280;40708;50.364;7.550;2022-08-19T04:19:06;100170.16;;;17.55;100.00
54808;BME280;40708;50.364;7.550;2022-08-19T04:21:33;100177.31;;;17.54;100.00
54808;BME280;40708;50.364;7.550;2022-08-19T04:23:59;100171.09;;;17.52;100.00
54808;BME280;40708;50.364;7.550;2022-08-19T04:26:29;100180.06;;;17.51;100.00
54808;BME280;40708;50.364;7.550;2022-08-19T04:29:00;100176.47;;;17.52;100.00
54808;BME280;40708;50.364;7.550;2022-08-19T04:31:28;100178.22;;;17.55;100.00
54808;BME280;40708;50.364;7.550;2022-08-19T04:33:56;100171.91;;;17.56;100.00
54808;BME280;40708;50.364;7.550;2022-08-19T04:36:25;100178.13;;;17.58;100.00
54808;BME280;40708;50.364;7.550;2022-08-19T04:38:57;100185.22;;;17.59;100.00
54808;BME280;40708;50.364;7.550;2022-08-19T04:41:23;100187.91;;;17.59;100.00
54808;BME280;40708;50.364;7.550;2022-08-19T04:44:08;100196.81;;;17.61;100.00
54808;BME280;40708;50.364;7.550;2022-08-19T04:46:33;100202.09;;;17.62;100.00
54808;BME280;40708;50.364;7.550;2022-08-19T04:49:00;100199.41;;;17.62;100.00
54808;BME280;40708;50.364;7.550;2022-08-19T04:51:27;100194.88;;;17.64;100.00
54808;BME280;40708;50.364;7.550;2022-08-19T04:53:53;100202.72;;;17.70;100.00
54808;BME280;40708;50.364;7.550;2022-08-19T04:56:20;100199.84;;;17.76;100.00
54808;BME280;40708;50.364;7.550;2022-08-19T04:58:46;100198.78;;;17.82;100.00
54808;BME280;40708;50.364;7.550;2022-08-19T05:01:17;100191.28;;;17.92;100.00
54808;BME280;40708;50.364;7.550;2022-08-19T05:03:42;100197.28;;;18.00;100.00
54808;BME280;40708;50.364;7.550;2022-08-19T05:06:11;100201.53;;;18.07;100.00
54808;BME280;40708;50.364;7.550;2022-08-19T05:08:38;100199.38;;;18.16;100.00
54808;BME280;40708;50.364;7.550;2022-08-19T05:11:14;100200.81;;;18.26;100.00
54808;BME280;40708;50.364;7.550;2022-08-19T05:13:40;100188.78;;;18.38;100.00
54808;BME280;40708;50.364;7.550;2022-08-19T05:16:06;100190.09;;;18.53;100.00
54808;BME280;40708;50.364;7.550;2022-08-19T05:18:31;100181.66;;;18.62;100.00
54808;BME280;40708;50.364;7.550;2022-08-19T05:21:18;100185.50;;;18.79;100.00
54808;BME280;40708;50.364;7.550;2022-08-19T05:24:03;100183.13;;;18.95;100.00
54808;BME280;40708;50.364;7.550;2022-08-19T05:26:28;100191.84;;;19.01;100.00
54808;BME280;40708;50.364;7.550;2022-08-19T05:28:55;100191.44;;;19.12;100.00
54808;BME280;40708;50.364;7.550;2022-08-19T05:31:20;100188.31;;;19.23;100.00
54808;BME280;40708;50.364;7.550;2022-08-19T05:33:46;100191.09;;;19.21;100.00
54808;BME280;40708;50.364;7.550;2022-08-19T05:36:12;100175.56;;;19.28;100.00
54808;BME280;40708;50.364;7.550;2022-08-19T05:38:38;100180.44;;;19.41;100.00
54808;BME280;40708;50.364;7.550;2022-08-19T05:41:14;100175.56;;;19.51;100.00
54808;BME280;40708;50.364;7.550;2022-08-19T05:43:40;100171.50;;;19.63;100.00
54808;BME280;40708;50.364;7.550;2022-08-19T05:46:07;100175.59;;;19.73;100.00
54808;BME280;40708;50.364;7.550;2022-08-19T05:48:34;100171.59;;;19.81;100.00
54808;BME280;40708;50.364;7.550;2022-08-19T05:51:07;100169.63;;;19.86;100.00
54808;BME280;40708;50.364;7.550;2022-08-19T05:53:34;100174.19;;;19.84;100.00
54808;BME280;40708;50.364;7.550;2022-08-19T05:56:07;100173.47;;;20.01;100.00
54808;BME280;40708;50.364;7.550;2022-08-19T05:58:33;100171.63;;;20.23;100.00
54808;BME280;40708;50.364;7.550;2022-08-19T06:00:59;100170.66;;;20.46;100.00
54808;BME280;40708;50.364;7.550;2022-08-19T06:03:30;100169.47;;;20.71;100.00
54808;BME280;40708;50.364;7.550;2022-08-19T06:05:55;100172.00;;;20.95;100.00
54808;BME280;40708;50.364;7.550;2022-08-19T06:08:21;100165.13;;;21.26;100.00
54808;BME280;40708;50.364;7.550;2022-08-19T06:10:46;100170.97;;;21.36;100.00
54808;BME280;40708;50.364;7.550;2022-08-19T06:13:12;100163.06;;;21.87;100.00
54808;BME280;40708;50.364;7.550;2022-08-19T06:15:37;100163.69;;;21.92;100.00
54808;BME280;40708;50.364;7.550;2022-08-19T06:18:02;100162.09;;;22.40;100.00
54808;BME280;40708;50.364;7.550;2022-08-19T06:20:28;100160.69;;;22.67;100.00
54808;BME280;40708;50.364;7.550;2022-08-19T06:22:54;100163.16;;;23.04;100.00
54808;BME280;40708;50.364;7.550;2022-08-19T06:25:20;100148.81;;;23.51;100.00
54808;BME280;40708;50.364;7.550;2022-08-19T06:27:45;100157.59;;;24.01;100.00
54808;BME280;40708;50.364;7.550;2022-08-19T06:30:11;100160.69;;;24.25;100.00
54808;BME280;40708;50.364;7.550;2022-08-19T06:32:37;100162.41;;;24.12;100.00
54808;BME280;40708;50.364;7.550;2022-08-19T06:35:03;100164.94;;;23.99;100.00
54808;BME280;40708;50.364;7.550;2022-08-19T06:37:29;100167.38;;;24.04;100.00
54808;BME280;40708;50.364;7.550;2022-08-19T06:39:54;100167.28;;;24.21;100.00
54808;BME280;40708;50.364;7.550;2022-08-19T06:42:20;100176.72;;;24.30;100.00
54808;BME280;40708;50.364;7.550;2022-08-19T06:44:47;100178.50;;;24.59;100.00
54808;BME280;40708;50.364;7.550;2022-08-19T06:47:15;100180.53;;;24.55;100.00
54808;BME280;40708;50.364;7.550;2022-08-19T06:49:42;100183.25;;;24.99;100.00
54808;BME280;40708;50.364;7.550;2022-08-19T06:52:07;100185.66;;;25.46;100.00
54808;BME280;40708;50.364;7.550;2022-08-19T06:54:33;100180.28;;;25.44;100.00
54808;BME280;40708;50.364;7.550;2022-08-19T06:57:00;100190.13;;;25.19;100.00
54808;BME280;40708;50.364;7.550;2022-08-19T06:59:30;100185.56;;;25.88;100.00
54808;BME280;40708;50.364;7.550;2022-08-19T07:01:58;100186.88;;;25.95;100.00
54808;BME280;40708;50.364;7.550;2022-08-19T07:04:29;100192.28;;;26.10;100.00
54808;BME280;40708;50.364;7.550;2022-08-19T07:07:01;100190.63;;;26.60;100.00
54808;BME280;40708;50.364;7.550;2022-08-19T07:09:27;100199.88;;;26.31;100.00
54808;BME280;40708;50.364;7.550;2022-08-19T07:11:54;100207.56;;;26.64;100.00
54808;BME280;40708;50.364;7.550;2022-08-19T07:14:23;100207.88;;;27.11;100.00
54808;BME280;40708;50.364;7.550;2022-08-19T07:16:51;100207.44;;;26.92;100.00
54808;BME280;40708;50.364;7.550;2022-08-19T07:19:18;100203.41;;;26.98;100.00
54808;BME280;40708;50.364;7.550;2022-08-19T07:21:44;100210.38;;;27.02;100.00
54808;BME280;40708;50.364;7.550;2022-08-19T07:24:09;100205.00;;;27.38;100.00
54808;BME280;40708;50.364;7.550;2022-08-19T07:26:42;100218.66;;;27.00;100.00
54808;BME280;40708;50.364;7.550;2022-08-19T07:29:08;100206.06;;;28.10;100.00
54808;BME280;40708;50.364;7.550;2022-08-19T07:31:34;100222.69;;;26.95;100.00
54808;BME280;40708;50.364;7.550;2022-08-19T07:34:04;100216.84;;;26.22;100.00
54808;BME280;40708;50.364;7.550;2022-08-19T07:36:35;100219.78;;;26.19;100.00
54808;BME280;40708;50.364;7.550;2022-08-19T07:39:06;100222.31;;;25.39;100.00
54808;BME280;40708;50.364;7.550;2022-08-19T07:41:32;100216.13;;;25.51;100.00
54808;BME280;40708;50.364;7.550;2022-08-19T07:43:59;100229.78;;;25.35;100.00
54808;BME280;40708;50.364;7.550;2022-08-19T07:46:31;100221.81;;;25.75;100.00
54808;BME280;40708;50.364;7.550;2022-08-19T07:48:58;100224.56;;;25.87;100.00
54808;BME280;40708;50.364;7.550;2022-08-19T07:51:26;100232.41;;;25.23;100.00
54808;BME280;40708;50.364;7.550;2022-08-19T07:53:51;100220.78;;;25.21;100.00
54808;BME280;40708;50.364;7.550;2022-08-19T07:56:19;100227.91;;;25.78;100.00
54808;BME280;40708;50.364;7.550;2022-08-19T07:58:47;100230.16;;;25.72;100.00
54808;BME280;40708;50.364;7.550;2022-08-19T08:01:15;100221.47;;;25.93;100.00
54808;BME280;40708;50.364;7.550;2022-08-19T08:03:42;100211.09;;;26.13;100.00
54808;BME280;40708;50.364;7.550;2022-08-19T08:06:26;100223.00;;;26.51;100.00
54808;BME280;40708;50.364;7.550;2022-08-19T08:09:11;100214.75;;;26.52;100.00
54808;BME280;40708;50.364;7.550;2022-08-19T08:11:52;100211.03;;;26.41;100.00
54808;BME280;40708;50.364;7.550;2022-08-19T08:14:21;100205.28;;;26.19;100.00
54808;BME280;40708;50.364;7.550;2022-08-19T08:16:48;100208.59;;;26.10;100.00
54808;BME280;40708;50.364;7.550;2022-08-19T08:19:18;100213.25;;;26.22;100.00
54808;BME280;40708;50.364;7.550;2022-08-19T08:21:43;100211.06;;;26.14;100.00
54808;BME280;40708;50.364;7.550;2022-08-19T08:24:10;100215.25;;;25.91;100.00
54808;BME280;40708;50.364;7.550;2022-08-19T08:26:35;100215.66;;;26.12;100.00
54808;BME280;40708;50.364;7.550;2022-08-19T08:29:01;100216.38;;;26.01;100.00
54808;BME280;40708;50.364;7.550;2022-08-19T08:31:26;100219.03;;;25.48;100.00
54808;BME280;40708;50.364;7.550;2022-08-19T08:33:51;100214.00;;;25.97;100.00
54808;BME280;40708;50.364;7.550;2022-08-19T08:36:17;100207.78;;;26.48;100.00
54808;BME280;40708;50.364;7.550;2022-08-19T08:38:43;100219.63;;;26.99;100.00
54808;BME280;40708;50.364;7.550;2022-08-19T08:43:55;100213.44;;;26.85;100.00
54808;BME280;40708;50.364;7.550;2022-08-19T08:48:59;100215.38;;;27.20;100.00
54808;BME280;40708;50.364;7.550;2022-08-19T08:51:34;100222.22;;;27.39;100.00
54808;BME280;40708;50.364;7.550;2022-08-19T08:54:02;100217.66;;;27.14;100.00
54808;BME280;40708;50.364;7.550;2022-08-19T08:56:29;100214.59;;;27.93;100.00
54808;BME280;40708;50.364;7.550;2022-08-19T08:59:12;100205.88;;;28.48;100.00
54808;BME280;40708;50.364;7.550;2022-08-19T09:01:42;100208.09;;;28.77;100.00
54808;BME280;40708;50.364;7.550;2022-08-19T09:04:07;100203.88;;;28.50;100.00
54808;BME280;40708;50.364;7.550;2022-08-19T09:09:17;100198.38;;;29.41;100.00
54808;BME280;40708;50.364;7.550;2022-08-19T09:12:04;100200.09;;;29.20;100.00
54808;BME280;40708;50.364;7.550;2022-08-19T09:17:08;100195.25;;;29.90;100.00
54808;BME280;40708;50.364;7.550;2022-08-19T09:19:46;100198.09;;;29.11;100.00
54808;BME280;40708;50.364;7.550;2022-08-19T09:22:11;100196.28;;;29.45;100.00
54808;BME280;40708;50.364;7.550;2022-08-19T09:24:37;100198.53;;;29.51;100.00
54808;BME280;40708;50.364;7.550;2022-08-19T09:27:03;100190.47;;;28.47;100.00
54808;BME280;40708;50.364;7.550;2022-08-19T09:29:29;100193.09;;;28.59;100.00
54808;BME280;40708;50.364;7.550;2022-08-19T09:31:55;100193.25;;;29.04;100.00
54808;BME280;40708;50.364;7.550;2022-08-19T09:34:20;100178.44;;;28.14;100.00
54808;BME280;40708;50.364;7.550;2022-08-19T09:36:46;100185.22;;;28.09;100.00
54808;BME280;40708;50.364;7.550;2022-08-19T09:39:11;100180.31;;;28.72;100.00
54808;BME280;40708;50.364;7.550;2022-08-19T09:41:37;100175.59;;;28.85;100.00
54808;BME280;40708;50.364;7.550;2022-08-19T09:44:02;100169.88;;;28.54;100.00
54808;BME280;40708;50.364;7.550;2022-08-19T09:46:28;100189.50;;;28.48;100.00
54808;BME280;40708;50.364;7.550;2022-08-19T09:48:59;100191.94;;;28.63;100.00
54808;BME280;40708;50.364;7.550;2022-08-19T09:51:26;100192.13;;;28.25;100.00
54808;BME280;40708;50.364;7.550;2022-08-19T09:53:52;100180.13;;;28.04;100.00
54808;BME280;40708;50.364;7.550;2022-08-19T09:56:19;100175.94;;;28.11;100.00
54808;BME280;40708;50.364;7.550;2022-08-19T09:58:45;100180.81;;;28.54;100.00
54808;BME280;40708;50.364;7.550;2022-08-19T10:01:19;100175.94;;;28.81;100.00
54808;BME280;40708;50.364;7.550;2022-08-19T10:03:48;100178.41;;;28.73;100.00
54808;BME280;40708;50.364;7.550;2022-08-19T10:06:14;100177.19;;;28.42;100.00
54808;BME280;40708;50.364;7.550;2022-08-19T10:08:40;100175.31;;;27.95;100.00
54808;BME280;40708;50.364;7.550;2022-08-19T10:11:05;100189.84;;;27.96;100.00
54808;BME280;40708;50.364;7.550;2022-08-19T10:13:32;100181.00;;;28.63;100.00
54808;BME280;40708;50.364;7.550;2022-08-19T10:16:09;100189.41;;;28.60;100.00
54808;BME280;40708;50.364;7.550;2022-08-19T10:18:36;100187.25;;;28.87;100.00
54808;BME280;40708;50.364;7.550;2022-08-19T10:21:13;100182.81;;;29.20;100.00
54808;BME280;40708;50.364;7.550;2022-08-19T10:23:41;100172.66;;;29.11;100.00
54808;BME280;40708;50.364;7.550;2022-08-19T10:26:10;100167.22;;;29.33;100.00
54808;BME280;40708;50.364;7.550;2022-08-19T10:28:37;100166.69;;;29.17;100.00
54808;BME280;40708;50.364;7.550;2022-08-19T10:31:10;100159.16;;;29.31;100.00
54808;BME280;40708;50.364;7.550;2022-08-19T10:33:36;100157.38;;;28.86;100.00
54808;BME280;40708;50.364;7.550;2022-08-19T10:36:08;100156.97;;;28.79;100.00
54808;BME280;40708;50.364;7.550;2022-08-19T10:38:35;100165.44;;;29.10;100.00
54808;BME280;40708;50.364;7.550;2022-08-19T10:41:13;100157.38;;;28.86;100.00
54808;BME280;40708;50.364;7.550;2022-08-19T10:43:40;100161.16;;;29.29;100.00
54808;BME280;40708;50.364;7.550;2022-08-19T10:46:08;100145.84;;;29.16;100.00
54808;BME280;40708;50.364;7.550;2022-08-19T10:48:33;100155.91;;;29.37;100.00
54808;BME280;40708;50.364;7.550;2022-08-19T10:51:00;100154.16;;;29.47;100.00
54808;BME280;40708;50.364;7.550;2022-08-19T10:53:43;100154.28;;;29.13;100.00
54808;BME280;40708;50.364;7.550;2022-08-19T10:56:09;100152.91;;;29.18;100.00
54808;BME280;40708;50.364;7.550;2022-08-19T10:58:53;100145.47;;;29.42;100.00
54808;BME280;40708;50.364;7.550;2022-08-19T11:01:18;100143.38;;;29.46;100.00
54808;BME280;40708;50.364;7.550;2022-08-19T11:03:43;100137.25;;;29.20;100.00
54808;BME280;40708;50.364;7.550;2022-08-19T11:06:10;100157.88;;;29.02;100.00
54808;BME280;40708;50.364;7.550;2022-08-19T11:08:37;100151.69;;;29.22;100.00
54808;BME280;40708;50.364;7.550;2022-08-19T11:11:03;100143.22;;;29.14;100.00
54808;BME280;40708;50.364;7.550;2022-08-19T11:13:34;100156.88;;;28.57;100.00
54808;BME280;40708;50.364;7.550;2022-08-19T11:16:05;100142.22;;;28.47;100.00
54808;BME280;40708;50.364;7.550;2022-08-19T11:18:32;100127.28;;;28.64;100.00
54808;BME280;40708;50.364;7.550;2022-08-19T11:21:06;100133.41;;;28.44;100.00
54808;BME280;40708;50.364;7.550;2022-08-19T11:23:31;100134.00;;;28.82;100.00
54808;BME280;40708;50.364;7.550;2022-08-19T11:25:57;100135.25;;;28.43;100.00
54808;BME280;40708;50.364;7.550;2022-08-19T11:28:24;100123.88;;;28.60;100.00
54808;BME280;40708;50.364;7.550;2022-08-19T11:30:50;100127.31;;;28.75;100.00
54808;BME280;40708;50.364;7.550;2022-08-19T11:33:15;100116.53;;;29.07;100.00
54808;BME280;40708;50.364;7.550;2022-08-19T11:35:40;100112.19;;;29.04;100.00
54808;BME280;40708;50.364;7.550;2022-08-19T11:38:06;100106.81;;;29.47;100.00
54808;BME280;40708;50.364;7.550;2022-08-19T11:40:31;100095.41;;;29.09;100.00
54808;BME280;40708;50.364;7.550;2022-08-19T11:42:58;100111.16;;;29.16;100.00
54808;BME280;40708;50.364;7.550;2022-08-19T11:45:25;100114.78;;;28.94;100.00
54808;BME280;40708;50.364;7.550;2022-08-19T11:47:51;100102.13;;;28.93;100.00
54808;BME280;40708;50.364;7.550;2022-08-19T11:50:16;100101.50;;;29.12;100.00
54808;BME280;40708;50.364;7.550;2022-08-19T11:52:43;100105.88;;;29.26;100.00
54808;BME280;40708;50.364;7.550;2022-08-19T11:55:10;100085.84;;;29.36;100.00
54808;BME280;40708;50.364;7.550;2022-08-19T11:57:35;100097.66;;;29.04;100.00
54808;BME280;40708;50.364;7.550;2022-08-19T12:00:01;100098.78;;;29.12;100.00
54808;BME280;40708;50.364;7.550;2022-08-19T12:02:26;100110.19;;;29.17;100.00
54808;BME280;40708;50.364;7.550;2022-08-19T12:04:52;100095.91;;;29.36;100.00
54808;BME280;40708;50.364;7.550;2022-08-19T12:07:17;100100.53;;;29.13;100.00
54808;BME280;40708;50.364;7.550;2022-08-19T12:09:43;100103.75;;;29.07;100.00
54808;BME280;40708;50.364;7.550;2022-08-19T12:12:09;100102.50;;;29.22;100.00
54808;BME280;40708;50.364;7.550;2022-08-19T12:14:34;100109.78;;;29.55;100.00
54808;BME280;40708;50.364;7.550;2022-08-19T12:17:00;100101.53;;;29.34;100.00
54808;BME280;40708;50.364;7.550;2022-08-19T12:19:27;100098.53;;;29.26;100.00
54808;BME280;40708;50.364;7.550;2022-08-19T12:21:58;100097.50;;;29.49;100.00
54808;BME280;40708;50.364;7.550;2022-08-19T12:24:25;100098.81;;;29.66;100.00
54808;BME280;40708;50.364;7.550;2022-08-19T12:26:50;100094.75;;;29.49;100.00
54808;BME280;40708;50.364;7.550;2022-08-19T12:29:16;100090.75;;;29.76;100.00
54808;BME280;40708;50.364;7.550;2022-08-19T12:31:41;100091.75;;;30.06;100.00
54808;BME280;40708;50.364;7.550;2022-08-19T12:34:06;100097.31;;;29.84;100.00
54808;BME280;40708;50.364;7.550;2022-08-19T12:36:33;100088.50;;;29.70;100.00
54808;BME280;40708;50.364;7.550;2022-08-19T12:38:58;100092.44;;;29.77;100.00
54808;BME280;40708;50.364;7.550;2022-08-19T12:41:25;100086.88;;;29.89;100.00
54808;BME280;40708;50.364;7.550;2022-08-19T12:43:51;100083.69;;;30.05;100.00
54808;BME280;40708;50.364;7.550;2022-08-19T12:46:18;100074.31;;;29.87;100.00
54808;BME280;40708;50.364;7.550;2022-08-19T12:48:44;100064.59;;;29.94;100.00
54808;BME280;40708;50.364;7.550;2022-08-19T12:51:13;100082.03;;;29.82;100.00
54808;BME280;40708;50.364;7.550;2022-08-19T12:53:39;100070.53;;;29.56;100.00